createdAt,value
2022-12-31T00:00:26.726Z,5.82
2022-12-31T00:15:28.961Z,5.61
2022-12-31T00:30:31.255Z,5.25
2022-12-31T00:45:33.567Z,4.67
2022-12-31T01:00:35.799Z,5.11
2022-12-31T01:15:38.109Z,5.41
2022-12-31T01:30:40.451Z,5.62
2022-12-31T01:45:42.832Z,5.52
2022-12-31T02:00:45.159Z,5.41
2022-12-31T02:15:47.592Z,5.4
2022-12-31T02:30:49.980Z,5.09
2022-12-31T02:45:52.291Z,5.23
2022-12-31T03:00:54.569Z,5.36
2022-12-31T03:15:56.835Z,5.35
2022-12-31T03:30:59.455Z,5.38
2022-12-31T03:46:02.034Z,5.56
2022-12-31T04:01:04.369Z,5.46
2022-12-31T04:16:06.742Z,5.33
2022-12-31T04:31:08.970Z,5.26
2022-12-31T04:46:11.186Z,5.21
2022-12-31T05:01:13.742Z,5.29
2022-12-31T05:16:16.409Z,5.26
2022-12-31T05:31:18.727Z,5.22
2022-12-31T05:46:21.174Z,5.3
2022-12-31T06:01:23.541Z,5.3
2022-12-31T06:16:25.905Z,5.42
2022-12-31T06:31:28.457Z,5
2022-12-31T06:46:30.873Z,5.15
2022-12-31T07:01:33.210Z,5.32
2022-12-31T07:16:35.587Z,5.26
2022-12-31T07:31:37.921Z,4.87
2022-12-31T07:46:40.349Z,5.04
2022-12-31T08:01:42.731Z,5.21
2022-12-31T08:16:45.161Z,5.13
2022-12-31T08:31:47.436Z,5.29
2022-12-31T08:46:49.700Z,5.1
2022-12-31T09:01:52.303Z,5.1
2022-12-31T09:16:54.736Z,5
2022-12-31T09:31:57.166Z,5.32
2022-12-31T09:46:59.438Z,5.08
2022-12-31T10:02:01.925Z,5.13
2022-12-31T10:17:04.368Z,5.05
2022-12-31T10:32:06.789Z,5.19
2022-12-31T10:47:09.157Z,5.19
2022-12-31T11:02:11.712Z,5
2022-12-31T11:17:14.031Z,4.92
2022-12-31T11:32:16.382Z,5.09
2022-12-31T11:47:18.622Z,5.01
2022-12-31T12:02:20.909Z,5.1
2022-12-31T12:17:23.412Z,4.96
2022-12-31T12:32:25.650Z,5.35
2022-12-31T12:47:28.077Z,5.03
2022-12-31T13:02:30.477Z,4.96
2022-12-31T13:17:32.978Z,4.79
2022-12-31T13:32:35.291Z,4.87
2022-12-31T13:47:37.509Z,4.91
2022-12-31T14:02:39.841Z,5.09
2022-12-31T14:17:42.285Z,4.91
2022-12-31T14:32:44.607Z,5.07
2022-12-31T14:47:46.842Z,4.89
2022-12-31T15:02:49.044Z,5.22
2022-12-31T15:17:51.299Z,5.06
2022-12-31T15:32:53.792Z,4.94
2022-12-31T15:47:56.033Z,5
2022-12-31T16:02:58.405Z,4.9
2022-12-31T16:18:00.814Z,4.93
2022-12-31T16:33:03.134Z,5.4
2022-12-31T16:48:05.574Z,5.21
2022-12-31T17:03:07.827Z,5.36
2022-12-31T17:18:10.118Z,5.4
2022-12-31T17:33:12.332Z,5.28
2022-12-31T17:48:14.610Z,5.34
2022-12-31T18:03:16.845Z,5.66
2022-12-31T18:18:24.350Z,5.68
2022-12-31T18:33:27.379Z,5.8
2022-12-31T18:48:29.728Z,5.92
2022-12-31T19:03:32.017Z,5.89
2022-12-31T19:18:34.424Z,5.99
2022-12-31T19:33:36.725Z,5.94
2022-12-31T19:48:39.091Z,5.54
2022-12-31T20:03:41.556Z,5.89
2022-12-31T20:18:43.797Z,6.05
2022-12-31T20:33:46.020Z,5.91
2022-12-31T20:48:48.257Z,6.13
2022-12-31T21:04:06.042Z,5.94
2022-12-31T21:19:09.311Z,5.98
2022-12-31T21:34:11.551Z,6.05
2022-12-31T21:49:13.937Z,6.27
2022-12-31T22:04:43.326Z,6.58
2022-12-31T22:20:26.486Z,6.09
2022-12-31T22:35:29.798Z,6.14
2022-12-31T22:50:32.085Z,6.07
2022-12-31T23:05:34.330Z,6.38
2022-12-31T23:20:36.548Z,5.98
2022-12-31T23:35:38.905Z,6.19
2022-12-31T23:50:41.130Z,5.93
